Time;durP1;ratioP1;P1;durP2;ratioP2;P2;SDS_P1;SDS_P2;PMS_P1;PMS_P2;Temp;Humidity;BMP_temperature;BMP_pressure;BME280_temperature;BME280_humidity;BME280_pressure;Samples;Min_cycle;Max_cycle;Signal;HPM_P1;HPM_P2
2022/01/21 00:00:10;;;;;;;7.18;1.00;;;-1.00;99.90;;;;;;4848520;29;20064;-66
2022/01/21 00:02:35;;;;;;;8.93;1.23;;;-1.00;99.90;;;;;;4854224;29;20140;-65
2022/01/21 00:05:01;;;;;;;4.32;1.10;;;-1.10;99.90;;;;;;4859586;29;20030;-65
2022/01/21 00:07:26;;;;;;;9.05;1.20;;;-1.10;99.90;;;;;;4836510;29;20519;-66
2022/01/21 00:09:52;;;;;;;4.88;1.00;;;-1.10;99.90;;;;;;4848701;29;20048;-65
2022/01/21 00:12:17;;;;;;;5.63;1.05;;;-1.10;99.90;;;;;;4851168;29;20069;-66
2022/01/21 00:14:44;;;;;;;5.72;1.40;;;-1.20;99.90;;;;;;4859103;29;20044;-65
2022/01/21 00:17:10;;;;;;;7.75;1.55;;;-1.20;99.90;;;;;;4854208;29;20037;-65
2022/01/21 00:19:39;;;;;;;16.00;1.40;;;-1.10;99.90;;;;;;4859350;29;20085;-65
2022/01/21 00:30:20;;;;;;;6.55;1.23;;;-1.20;99.90;;;;;;4860904;29;20169;-66
2022/01/21 00:32:46;;;;;;;8.02;1.10;;;-1.20;99.90;;;;;;4844859;29;20041;-65
2022/01/21 00:35:11;;;;;;;6.38;1.05;;;-1.30;99.90;;;;;;4842004;29;20033;-65
2022/01/21 00:37:37;;;;;;;4.50;0.93;;;-1.30;99.90;;;;;;4860771;29;20112;-66
2022/01/21 00:40:03;;;;;;;7.70;1.30;;;-1.40;99.90;;;;;;4838266;29;20026;-66
2022/01/21 00:44:58;;;;;;;5.50;1.00;;;-1.40;99.90;;;;;;4849391;29;20035;-65
2022/01/21 00:47:24;;;;;;;2.60;1.10;;;-1.50;99.90;;;;;;4846211;29;20477;-65
2022/01/21 00:49:49;;;;;;;9.60;1.60;;;-1.50;99.90;;;;;;4849066;29;20033;-65
2022/01/21 00:52:14;;;;;;;4.63;1.00;;;-1.50;99.90;;;;;;4851144;29;20366;-66
2022/01/21 00:54:40;;;;;;;5.72;1.17;;;-1.50;99.90;;;;;;4822197;29;20033;-66
2022/01/21 00:57:06;;;;;;;4.68;0.95;;;-1.50;99.90;;;;;;4845128;29;20037;-66
2022/01/21 00:59:31;;;;;;;4.78;1.10;;;-1.50;99.90;;;;;;4842801;29;20030;-65
2022/01/21 01:01:57;;;;;;;7.38;1.08;;;-1.50;99.90;;;;;;4846768;29;20033;-65
2022/01/21 01:04:22;;;;;;;10.57;1.00;;;-1.50;99.90;;;;;;4842985;29;20764;-66
2022/01/21 01:06:48;;;;;;;4.95;0.98;;;-1.40;99.90;;;;;;4860618;29;20063;-65
2022/01/21 01:09:13;;;;;;;2.88;0.90;;;-1.40;99.90;;;;;;4841857;29;20041;-65
2022/01/21 01:12:11;;;;;;;7.28;0.70;;;-1.50;99.90;;;;;;4837827;29;20040;-65
2022/01/21 01:20:07;;;;;;;5.53;1.67;;;-1.40;99.90;;;;;;4842554;29;20060;-66
2022/01/21 01:27:55;;;;;;;10.15;1.40;;;-1.50;99.90;;;;;;4848695;29;20180;-66
2022/01/21 01:30:20;;;;;;;4.15;0.90;;;-1.60;99.90;;;;;;4845173;29;20067;-66
2022/01/21 01:32:46;;;;;;;4.25;0.90;;;-1.50;99.90;;;;;;4825114;29;20548;-66
2022/01/21 01:35:12;;;;;;;2.55;0.88;;;-1.50;99.90;;;;;;4858860;29;20112;-65
2022/01/21 01:38:12;;;;;;;4.78;0.90;;;-0.80;99.90;;;;;;4843460;29;20052;-66
2022/01/21 01:41:02;;;;;;;5.18;0.90;;;-1.50;99.90;;;;;;4837840;29;20029;-65
2022/01/21 01:51:22;;;;;;;3.95;0.85;;;-1.60;99.90;;;;;;4849896;29;20089;-66
2022/01/21 01:53:48;;;;;;;9.43;1.30;;;-1.60;99.90;;;;;;4838326;29;20030;-65
2022/01/21 01:56:13;;;;;;;7.97;1.83;;;-1.60;99.90;;;;;;4837664;29;20037;-65
2022/01/21 01:58:39;;;;;;;7.38;1.00;;;-1.50;99.90;;;;;;4843449;29;20036;-66
2022/01/21 02:01:04;;;;;;;7.35;1.27;;;-1.50;99.90;;;;;;4842707;29;20487;-66
2022/01/21 02:03:30;;;;;;;5.63;1.13;;;-1.50;99.90;;;;;;4840629;29;20044;-65
2022/01/21 02:05:55;;;;;;;3.70;1.23;;;-1.60;99.90;;;;;;4839360;29;20040;-65
2022/01/21 02:08:21;;;;;;;8.10;1.30;;;-1.60;99.90;;;;;;4857800;29;20048;-65
2022/01/21 02:10:46;;;;;;;2.70;1.20;;;-1.60;99.90;;;;;;4846131;29;20068;-65
2022/01/21 02:13:22;;;;;;;10.07;1.50;;;-1.60;99.90;;;;;;4859135;29;20139;-65
2022/01/21 02:15:47;;;;;;;10.20;1.90;;;-1.60;99.90;;;;;;4846012;29;20521;-65
2022/01/21 02:23:41;;;;;;;14.48;1.98;;;-1.60;99.90;;;;;;4843894;29;20155;-65
2022/01/21 02:26:09;;;;;;;4.43;1.10;;;-1.60;99.90;;;;;;4861720;29;20443;-65
2022/01/21 02:28:34;;;;;;;7.18;0.85;;;-1.60;99.90;;;;;;4859740;29;20094;-66
2022/01/21 02:31:00;;;;;;;9.23;1.17;;;-1.60;99.90;;;;;;4842004;29;20033;-65
2022/01/21 02:33:25;;;;;;;9.75;1.38;;;-1.60;99.90;;;;;;4852864;29;20569;-65
2022/01/21 02:35:51;;;;;;;6.13;1.00;;;-1.70;99.90;;;;;;4840883;29;20112;-66
2022/01/21 02:38:16;;;;;;;7.88;1.20;;;-1.70;99.90;;;;;;4850776;29;20084;-65
2022/01/21 02:40:42;;;;;;;4.32;0.85;;;-1.70;99.90;;;;;;4844424;29;20116;-65
2022/01/21 02:43:07;;;;;;;3.15;0.90;;;-1.70;99.90;;;;;;4856867;29;20043;-65
2022/01/21 02:45:33;;;;;;;7.93;0.95;;;-1.70;99.90;;;;;;4842979;29;20057;-65
2022/01/21 02:48:00;;;;;;;12.40;1.50;;;-1.70;99.90;;;;;;4833902;29;20030;-65
2022/01/21 02:50:26;;;;;;;8.25;1.45;;;-1.70;99.90;;;;;;4842276;29;20025;-65
2022/01/21 02:53:11;;;;;;;3.83;1.45;;;-1.80;99.90;;;;;;4828574;29;20645;-65
2022/01/21 02:55:36;;;;;;;4.38;0.93;;;-1.80;99.90;;;;;;4850731;29;20084;-65
2022/01/21 02:58:02;;;;;;;6.50;1.15;;;-1.80;99.90;;;;;;4855267;29;20803;-65
2022/01/21 03:00:27;;;;;;;8.27;1.67;;;-1.80;99.90;;;;;;4840901;29;20037;-69
2022/01/21 03:02:53;;;;;;;4.93;1.15;;;-2.50;99.90;;;;;;4833337;29;20037;-69
2022/01/21 03:05:19;;;;;;;7.93;1.05;;;-1.80;99.90;;;;;;4841796;29;20037;-69
2022/01/21 03:07:47;;;;;;;6.95;1.00;;;-1.80;99.90;;;;;;4843057;29;20419;-69
2022/01/21 03:10:13;;;;;;;2.08;0.80;;;-1.80;99.90;;;;;;4841381;29;20030;-69
2022/01/21 03:12:38;;;;;;;6.80;1.15;;;-1.80;99.90;;;;;;4839595;29;20097;-69
2022/01/21 03:15:04;;;;;;;2.53;0.88;;;-1.80;99.90;;;;;;4847930;29;20033;-69
2022/01/21 03:17:29;;;;;;;6.03;1.75;;;-1.90;99.90;;;;;;4847418;29;20858;-69
2022/01/21 03:19:55;;;;;;;4.75;1.13;;;-1.90;99.90;;;;;;4857445;29;20108;-68
2022/01/21 03:22:20;;;;;;;4.47;1.40;;;-1.90;99.90;;;;;;4844345;29;20801;-69
2022/01/21 03:24:46;;;;;;;7.57;1.52;;;-1.90;99.90;;;;;;4858468;29;20029;-69
2022/01/21 03:27:11;;;;;;;13.32;1.13;;;-1.90;99.90;;;;;;4846713;29;20025;-69
2022/01/21 03:29:37;;;;;;;8.13;1.45;;;-1.90;99.90;;;;;;4843158;29;20421;-69
2022/01/21 03:32:03;;;;;;;7.30;1.00;;;-2.00;99.90;;;;;;4833267;29;20025;-69
2022/01/21 03:34:31;;;;;;;9.38;1.27;;;-2.00;99.90;;;;;;4843538;29;20038;-69
2022/01/21 03:36:56;;;;;;;9.30;1.10;;;-2.00;99.90;;;;;;4843072;29;20072;-69
2022/01/21 03:39:22;;;;;;;6.90;1.33;;;-2.00;99.90;;;;;;4855559;29;20037;-69
2022/01/21 03:41:48;;;;;;;5.43;1.13;;;-2.00;99.90;;;;;;4838018;29;20025;-69
2022/01/21 03:44:17;;;;;;;6.00;1.20;;;-2.00;99.90;;;;;;4840995;29;20037;-69
2022/01/21 03:46:42;;;;;;;10.63;2.45;;;-2.00;99.90;;;;;;4847854;29;20046;-69
2022/01/21 03:49:09;;;;;;;6.25;1.13;;;-2.00;99.90;;;;;;4842418;29;20530;-69
2022/01/21 03:51:36;;;;;;;7.40;1.55;;;-2.00;99.90;;;;;;4843452;29;20115;-69
2022/01/21 03:54:02;;;;;;;5.13;1.25;;;-2.00;99.90;;;;;;4838531;29;20041;-69
2022/01/21 03:56:30;;;;;;;8.23;1.42;;;-2.00;99.90;;;;;;4837675;29;20045;-69
2022/01/21 03:58:56;;;;;;;10.55;1.30;;;-2.00;99.90;;;;;;4833117;29;20394;-69
2022/01/21 04:01:24;;;;;;;2.50;1.08;;;-2.00;99.90;;;;;;4841577;29;20481;-69
2022/01/21 04:03:50;;;;;;;5.13;1.05;;;-2.00;99.90;;;;;;4851348;29;20028;-69
2022/01/21 04:06:15;;;;;;;5.25;0.85;;;-2.00;99.90;;;;;;4840631;29;20047;-70
2022/01/21 04:08:42;;;;;;;10.77;1.30;;;-2.00;99.90;;;;;;4846063;29;20033;-69
2022/01/21 04:11:08;;;;;;;8.25;1.25;;;-2.00;99.90;;;;;;4842224;29;20109;-69
2022/01/21 04:13:38;;;;;;;4.30;0.98;;;-2.10;99.90;;;;;;4843628;29;20085;-69
2022/01/21 04:16:07;;;;;;;8.60;1.70;;;-2.10;99.90;;;;;;4845212;29;20063;-69
2022/01/21 04:18:33;;;;;;;9.82;1.85;;;-2.00;99.90;;;;;;4844413;29;20038;-69
2022/01/21 04:21:01;;;;;;;9.27;1.52;;;-2.00;99.90;;;;;;4843350;29;20057;-69
2022/01/21 04:23:28;;;;;;;6.55;2.28;;;-2.10;99.90;;;;;;4843962;29;20036;-69
2022/01/21 04:25:54;;;;;;;5.63;1.30;;;-2.10;99.90;;;;;;4836467;29;20056;-69
2022/01/21 04:28:20;;;;;;;12.88;2.05;;;-2.10;99.90;;;;;;4843663;29;20414;-69
2022/01/21 04:30:48;;;;;;;3.75;0.90;;;-2.10;99.90;;;;;;4851770;29;20032;-69
2022/01/21 04:33:15;;;;;;;4.40;0.90;;;-2.10;99.90;;;;;;4839895;29;20181;-69
2022/01/21 04:35:43;;;;;;;7.35;1.63;;;-2.20;99.90;;;;;;4831465;29;20028;-69
2022/01/21 04:38:12;;;;;;;5.85;0.98;;;-2.10;99.90;;;;;;4843169;29;20792;-69
2022/01/21 04:40:46;;;;;;;6.22;1.30;;;-2.10;99.90;;;;;;4847228;29;20028;-69
2022/01/21 04:48:41;;;;;;;8.10;1.27;;;-2.10;99.90;;;;;;4850424;29;20517;-69
2022/01/21 04:51:20;;;;;;;5.38;0.95;;;-2.10;99.90;;;;;;4849634;29;20042;-69
2022/01/21 04:53:46;;;;;;;1.52;0.80;;;-2.10;99.90;;;;;;4852089;29;20061;-69
2022/01/21 04:56:17;;;;;;;7.10;1.10;;;-2.10;99.90;;;;;;4841047;29;20056;-69
2022/01/21 04:58:43;;;;;;;6.53;0.80;;;-2.10;99.90;;;;;;4845878;29;20518;-69
2022/01/21 05:01:09;;;;;;;10.52;1.10;;;-2.10;99.90;;;;;;4850836;29;20094;-69
2022/01/21 05:03:34;;;;;;;10.32;1.20;;;-2.10;99.90;;;;;;4845021;29;20088;-69
2022/01/21 05:06:01;;;;;;;8.40;1.05;;;-2.10;99.90;;;;;;4849340;29;20036;-69
2022/01/21 05:08:32;;;;;;;8.68;1.40;;;-2.10;99.90;;;;;;4841981;29;20405;-70
2022/01/21 05:10:59;;;;;;;6.47;1.30;;;-2.10;99.90;;;;;;4842599;29;20784;-70
2022/01/21 05:13:28;;;;;;;10.10;1.30;;;-2.10;99.90;;;;;;4845310;29;20041;-69
2022/01/21 05:18:29;;;;;;;7.57;0.93;;;-2.20;99.90;;;;;;4846044;29;20098;-70
2022/01/21 05:21:15;;;;;;;9.40;0.93;;;-2.20;99.90;;;;;;4859681;29;20056;-70
2022/01/21 05:23:52;;;;;;;4.18;0.90;;;-2.20;99.90;;;;;;4848595;29;20033;-69
2022/01/21 05:26:18;;;;;;;3.55;1.20;;;-2.30;99.90;;;;;;4845061;29;20053;-69
2022/01/21 05:28:43;;;;;;;5.00;0.90;;;-2.30;99.90;;;;;;4850013;29;20041;-69
2022/01/21 05:31:20;;;;;;;6.00;1.60;;;-2.30;99.90;;;;;;4847905;29;20838;-69
2022/01/21 05:34:18;;;;;;;7.63;1.52;;;-2.30;99.90;;;;;;4834691;29;20041;-69
2022/01/21 05:37:03;;;;;;;;;;;-2.30;99.90;;;;;;4858040;29;20053;-70
2022/01/21 05:39:53;;;;;;;7.53;1.27;;;-2.30;99.90;;;;;;4858519;29;19915;-69
2022/01/21 05:42:35;;;;;;;9.75;1.92;;;-2.30;99.90;;;;;;4844079;29;20026;-69
2022/01/21 05:48:24;;;;;;;9.82;1.95;;;-2.30;99.90;;;;;;4856517;29;20516;-69
2022/01/21 05:51:08;;;;;;;6.07;1.48;;;-2.30;99.90;;;;;;4866948;29;20074;-69
2022/01/21 05:53:54;;;;;;;6.63;1.30;;;-2.30;99.90;;;;;;4863648;29;20045;-69
2022/01/21 05:56:35;;;;;;;7.70;1.27;;;-2.40;99.90;;;;;;4868936;29;20276;-69
2022/01/21 05:59:02;;;;;;;4.85;1.30;;;-2.40;99.90;;;;;;4840139;29;20093;-69
2022/01/21 06:01:29;;;;;;;7.00;1.10;;;-2.40;99.90;;;;;;4838026;29;20037;-69
2022/01/21 06:03:54;;;;;;;5.03;1.60;;;-2.50;99.90;;;;;;4837166;29;20032;-69
2022/01/21 06:06:20;;;;;;;6.80;1.58;;;-2.50;99.90;;;;;;4856120;29;20606;-70
2022/01/21 06:08:46;;;;;;;14.82;2.42;;;-2.60;99.90;;;;;;4850285;29;20521;-70
2022/01/21 06:11:11;;;;;;;10.25;1.70;;;-3.10;99.90;;;;;;4842281;29;20679;-70
2022/01/21 06:13:37;;;;;;;5.35;1.60;;;-2.70;99.90;;;;;;4858927;29;20058;-68
2022/01/21 06:16:03;;;;;;;10.48;2.78;;;-2.80;99.90;;;;;;4839943;29;20056;-69
2022/01/21 06:18:28;;;;;;;17.55;5.20;;;-2.80;99.90;;;;;;4848377;29;20041;-69
2022/01/21 06:20:54;;;;;;;14.18;3.22;;;-2.80;99.90;;;;;;4858068;29;20116;-69
2022/01/21 06:23:19;;;;;;;14.82;3.55;;;-2.80;99.90;;;;;;4845748;29;20037;-69
2022/01/21 06:25:45;;;;;;;4.60;1.65;;;-2.90;99.90;;;;;;4843537;29;20049;-69
2022/01/21 06:28:11;;;;;;;6.72;1.95;;;-3.00;99.90;;;;;;4856646;29;20022;-69
2022/01/21 06:30:36;;;;;;;7.60;1.88;;;-3.00;99.90;;;;;;4856462;29;20739;-68
2022/01/21 06:33:02;;;;;;;9.63;1.77;;;-3.00;99.90;;;;;;4860652;29;20035;-68
2022/01/21 06:35:27;;;;;;;15.77;4.63;;;-3.10;99.90;;;;;;4863585;29;20781;-68
2022/01/21 06:37:52;;;;;;;8.70;2.58;;;-3.10;99.90;;;;;;4860846;29;20071;-68
2022/01/21 06:40:20;;;;;;;10.40;1.30;;;-3.10;99.90;;;;;;4854424;29;20120;-68
2022/01/21 06:42:45;;;;;;;16.05;3.83;;;-3.10;99.90;;;;;;4862868;29;20037;-68
2022/01/21 06:45:11;;;;;;;7.40;2.40;;;-3.10;99.90;;;;;;4856058;29;20046;-68
2022/01/21 06:47:36;;;;;;;7.57;1.70;;;-3.10;99.90;;;;;;4855046;29;20051;-68
2022/01/21 06:50:02;;;;;;;14.20;1.40;;;-3.10;99.90;;;;;;4863021;29;20052;-68
2022/01/21 06:52:27;;;;;;;6.38;1.80;;;-3.10;99.90;;;;;;4847767;29;20041;-68
2022/01/21 06:54:53;;;;;;;9.32;2.13;;;-3.10;99.90;;;;;;4857196;29;20416;-68
2022/01/21 06:57:18;;;;;;;11.13;1.88;;;-3.10;99.90;;;;;;4842863;29;20037;-68
2022/01/21 06:59:44;;;;;;;11.60;2.60;;;-3.10;99.90;;;;;;4858281;29;20037;-68
2022/01/21 07:02:09;;;;;;;21.10;5.80;;;-3.20;99.90;;;;;;4845132;29;20117;-68
2022/01/21 07:04:35;;;;;;;8.25;1.80;;;-3.20;99.90;;;;;;4858870;29;20070;-69
2022/01/21 07:07:00;;;;;;;9.85;1.90;;;-3.20;99.90;;;;;;4843106;29;20036;-68
2022/01/21 07:09:26;;;;;;;13.57;3.50;;;-3.20;99.90;;;;;;4852461;29;20112;-68
2022/01/21 07:11:51;;;;;;;17.33;3.25;;;-3.20;99.90;;;;;;4847424;29;20831;-68
2022/01/21 07:14:17;;;;;;;21.30;5.53;;;-3.20;99.90;;;;;;4840882;29;20052;-69
2022/01/21 07:16:42;;;;;;;8.77;1.77;;;-3.20;99.90;;;;;;4862115;29;20048;-68
2022/01/21 07:19:08;;;;;;;11.73;1.88;;;-3.10;99.90;;;;;;4841555;29;20033;-70
2022/01/21 07:21:33;;;;;;;24.65;4.70;;;-3.10;99.90;;;;;;4860600;29;20032;-69
2022/01/21 07:23:59;;;;;;;12.45;1.60;;;-3.10;99.90;;;;;;4864771;29;20029;-68
2022/01/21 07:26:26;;;;;;;7.57;1.75;;;-3.10;99.90;;;;;;4857093;29;20584;-68
2022/01/21 07:28:51;;;;;;;11.05;1.50;;;-3.10;99.90;;;;;;4857118;29;20102;-68
2022/01/21 07:31:17;;;;;;;15.73;1.70;;;-3.00;99.90;;;;;;4860820;29;20037;-68
2022/01/21 07:33:42;;;;;;;9.95;2.13;;;-2.90;99.90;;;;;;4867956;29;20029;-68
2022/01/21 07:36:08;;;;;;;11.75;1.92;;;-2.90;99.90;;;;;;4844553;29;20570;-68
2022/01/21 07:38:33;;;;;;;10.95;1.52;;;-2.80;99.90;;;;;;4843636;29;20033;-68
2022/01/21 07:40:59;;;;;;;6.20;1.70;;;-2.70;99.90;;;;;;4846691;29;20953;-68
2022/01/21 07:43:24;;;;;;;8.57;1.92;;;-2.70;99.90;;;;;;4840937;29;20037;-68
2022/01/21 07:45:50;;;;;;;13.25;1.55;;;-2.60;99.90;;;;;;4861341;29;20045;-68
2022/01/21 07:48:15;;;;;;;9.45;1.70;;;-2.30;99.90;;;;;;4860417;29;20037;-69
2022/01/21 07:50:41;;;;;;;16.30;2.15;;;-2.40;99.90;;;;;;4860895;29;20133;-68
2022/01/21 07:53:06;;;;;;;14.18;2.33;;;-2.30;99.90;;;;;;4850848;29;20017;-68
2022/01/21 07:55:32;;;;;;;11.38;2.25;;;-2.20;99.90;;;;;;4864728;29;20195;-68
2022/01/21 07:57:57;;;;;;;10.60;2.47;;;-2.10;99.90;;;;;;4861764;29;20771;-68
2022/01/21 08:00:23;;;;;;;8.57;1.90;;;-2.00;99.90;;;;;;4861910;29;20040;-68
2022/01/21 08:02:48;;;;;;;13.30;1.83;;;-2.00;99.90;;;;;;4863193;29;20044;-69
2022/01/21 08:05:13;;;;;;;17.98;2.90;;;-1.80;99.90;;;;;;4850755;29;20109;-68
2022/01/21 08:07:39;;;;;;;19.88;2.40;;;-1.80;99.90;;;;;;4859788;29;20577;-68
2022/01/21 08:10:04;;;;;;;20.38;2.88;;;-1.70;99.90;;;;;;4841834;29;20029;-68
2022/01/21 08:12:30;;;;;;;19.02;2.40;;;-1.60;99.90;;;;;;4852723;29;20712;-68
2022/01/21 08:14:55;;;;;;;9.65;1.98;;;-1.50;99.90;;;;;;4847084;29;20045;-68
2022/01/21 08:17:21;;;;;;;13.73;2.20;;;-1.40;99.90;;;;;;4865715;29;20048;-68
2022/01/21 08:19:47;;;;;;;17.52;2.60;;;-1.30;99.90;;;;;;4858095;29;20029;-68
2022/01/21 08:22:12;;;;;;;15.93;3.28;;;-1.20;99.90;;;;;;4853195;29;20502;-68
2022/01/21 08:24:38;;;;;;;9.20;2.03;;;-1.20;99.90;;;;;;4836666;29;20021;-68
2022/01/21 08:27:03;;;;;;;26.08;3.35;;;-1.10;99.90;;;;;;4847789;29;20044;-68
2022/01/21 08:29:29;;;;;;;11.88;2.58;;;-1.00;99.90;;;;;;4851052;29;20063;-69
2022/01/21 08:31:54;;;;;;;10.13;2.28;;;-0.90;99.90;;;;;;4865670;29;20415;-68
2022/01/21 08:34:20;;;;;;;16.13;3.33;;;-0.90;99.90;;;;;;4865102;29;20118;-68
2022/01/21 08:36:46;;;;;;;17.80;2.50;;;-0.80;99.90;;;;;;4858558;29;20031;-68
2022/01/21 08:39:13;;;;;;;18.48;3.60;;;-0.80;99.90;;;;;;4860820;29;20128;-68
2022/01/21 08:41:38;;;;;;;11.65;2.90;;;-0.80;99.90;;;;;;4864217;29;20045;-68
2022/01/21 08:44:04;;;;;;;15.80;3.00;;;-0.70;99.90;;;;;;4863354;29;20033;-68
2022/01/21 08:46:29;;;;;;;15.50;2.45;;;-0.70;99.90;;;;;;4863865;29;20450;-69
2022/01/21 08:48:55;;;;;;;23.17;4.97;;;-0.60;99.90;;;;;;4851636;29;20521;-68
2022/01/21 08:51:26;;;;;;;15.52;2.45;;;-0.50;99.90;;;;;;4853280;29;20709;-68
2022/01/21 08:53:51;;;;;;;14.07;2.50;;;-0.40;99.90;;;;;;4861671;29;20041;-68
2022/01/21 08:56:17;;;;;;;19.30;2.65;;;-0.40;99.90;;;;;;4865263;29;20040;-68
2022/01/21 08:58:42;;;;;;;18.88;2.72;;;-0.30;99.90;;;;;;4866951;29;20596;-68
2022/01/21 09:01:09;;;;;;;12.85;2.20;;;-0.20;99.90;;;;;;4860373;29;20120;-68
2022/01/21 09:03:35;;;;;;;14.98;2.35;;;-0.10;99.90;;;;;;4857538;29;20040;-68
2022/01/21 09:06:00;;;;;;;14.90;3.00;;;0.00;99.90;;;;;;4836323;29;20093;-68
2022/01/21 09:08:28;;;;;;;18.00;2.67;;;0.10;99.90;;;;;;4859849;29;20062;-68
2022/01/21 09:10:53;;;;;;;21.70;3.50;;;0.30;99.90;;;;;;4838489;29;20040;-68
2022/01/21 09:13:19;;;;;;;18.95;3.17;;;0.50;99.90;;;;;;4864515;29;20223;-67
2022/01/21 09:15:44;;;;;;;12.00;2.05;;;0.60;99.90;;;;;;4864500;29;20041;-65
2022/01/21 09:18:10;;;;;;;20.90;2.83;;;0.70;99.90;;;;;;4858245;29;20044;-64
2022/01/21 09:20:36;;;;;;;15.57;2.60;;;0.70;99.90;;;;;;4863442;29;20037;-64
2022/01/21 09:23:01;;;;;;;13.30;2.22;;;0.90;99.90;;;;;;4844974;29;20033;-64
2022/01/21 09:25:27;;;;;;;16.65;3.35;;;1.00;99.90;;;;;;4851552;29;20033;-65
2022/01/21 09:27:52;;;;;;;14.52;2.22;;;1.20;99.90;;;;;;4833111;29;20526;-64
2022/01/21 09:30:18;;;;;;;20.73;3.33;;;1.40;99.90;;;;;;4858835;29;20045;-65
2022/01/21 09:32:43;;;;;;;12.13;2.10;;;1.60;99.90;;;;;;4865721;29;20036;-65
2022/01/21 09:35:10;;;;;;;8.60;2.22;;;1.70;99.90;;;;;;4865531;29;20040;-64
2022/01/21 09:37:35;;;;;;;22.40;2.70;;;1.70;99.90;;;;;;4861743;29;20056;-64
2022/01/21 09:40:01;;;;;;;16.02;2.45;;;1.70;99.90;;;;;;4858731;29;20022;-64
2022/01/21 09:42:26;;;;;;;13.07;2.60;;;1.60;99.90;;;;;;4866953;29;20530;-64
2022/01/21 09:44:52;;;;;;;14.32;2.10;;;1.50;99.90;;;;;;4848791;29;20065;-64
2022/01/21 09:47:18;;;;;;;11.32;2.20;;;1.50;99.90;;;;;;4861535;29;20076;-64
2022/01/21 09:49:44;;;;;;;21.05;2.30;;;1.50;99.90;;;;;;4863295;29;20170;-64
2022/01/21 09:52:10;;;;;;;10.32;2.20;;;1.70;99.90;;;;;;4870580;29;20179;-67
2022/01/21 09:54:36;;;;;;;11.77;1.98;;;1.80;99.90;;;;;;4871626;29;20474;-65
2022/01/21 09:57:01;;;;;;;15.57;2.00;;;1.80;99.90;;;;;;4864993;29;20032;-64
2022/01/21 09:59:27;;;;;;;14.32;2.20;;;1.70;99.90;;;;;;4869039;29;20364;-65
2022/01/21 10:01:52;;;;;;;12.80;2.03;;;1.90;99.90;;;;;;4859225;29;20025;-64
2022/01/21 10:04:18;;;;;;;8.02;1.92;;;1.90;99.90;;;;;;4852610;29;20131;-64
2022/01/21 10:06:43;;;;;;;15.73;2.20;;;2.00;99.90;;;;;;4865017;29;20262;-64
2022/01/21 10:09:09;;;;;;;10.95;1.95;;;2.00;99.90;;;;;;4844725;29;20056;-64
2022/01/21 10:11:34;;;;;;;12.52;2.72;;;2.00;99.90;;;;;;4864519;29;21700;-65
2022/01/21 10:13:59;;;;;;;16.83;2.15;;;2.10;99.90;;;;;;4863661;29;20034;-64
2022/01/21 10:16:25;;;;;;;18.77;2.42;;;2.20;99.90;;;;;;4848941;29;20566;-64
2022/01/21 10:18:51;;;;;;;11.40;1.90;;;2.30;99.90;;;;;;4865222;29;20037;-64
2022/01/21 10:21:16;;;;;;;10.55;1.75;;;2.50;99.90;;;;;;4867853;29;20024;-64
2022/01/21 10:23:42;;;;;;;12.02;2.17;;;2.60;99.90;;;;;;4858920;29;20040;-64
2022/01/21 10:26:09;;;;;;;14.35;2.35;;;2.60;99.90;;;;;;4862197;29;20081;-64
2022/01/21 10:28:34;;;;;;;10.18;1.98;;;2.60;99.90;;;;;;4865768;29;20055;-64
2022/01/21 10:30:59;;;;;;;15.07;2.35;;;2.70;99.90;;;;;;4863635;29;20033;-64
2022/01/21 10:33:25;;;;;;;17.38;2.15;;;2.50;99.90;;;;;;4864764;29;20056;-64
2022/01/21 10:35:51;;;;;;;16.65;2.30;;;2.40;99.90;;;;;;4864899;29;20394;-65
2022/01/21 10:38:16;;;;;;;26.10;3.03;;;2.40;99.90;;;;;;4860826;29;20081;-64
2022/01/21 10:40:42;;;;;;;16.30;2.17;;;2.50;99.90;;;;;;4856012;29;20037;-64
2022/01/21 10:43:07;;;;;;;19.02;1.70;;;2.60;99.90;;;;;;4861850;29;20112;-64
2022/01/21 10:45:33;;;;;;;14.20;1.92;;;2.80;99.90;;;;;;4859902;29;20029;-64
2022/01/21 10:47:58;;;;;;;8.70;1.77;;;2.80;99.90;;;;;;4862817;29;20047;-64
2022/01/21 10:50:24;;;;;;;8.82;1.63;;;2.90;99.90;;;;;;4862405;29;20213;-65
2022/01/21 10:52:51;;;;;;;9.93;2.05;;;3.00;99.90;;;;;;4859580;29;20032;-64
2022/01/21 10:55:17;;;;;;;11.18;1.80;;;3.10;99.90;;;;;;4862030;29;20041;-65
2022/01/21 10:57:42;;;;;;;13.73;2.17;;;3.20;99.90;;;;;;4851547;29;20033;-65
2022/01/21 11:00:08;;;;;;;11.50;2.55;;;3.30;99.90;;;;;;4848399;29;20465;-64
2022/01/21 11:02:34;;;;;;;13.15;1.83;;;3.40;99.90;;;;;;4849540;29;20051;-65
2022/01/21 11:05:02;;;;;;;9.27;1.95;;;3.40;99.90;;;;;;4863056;29;20034;-65
2022/01/21 11:07:28;;;;;;;12.73;1.85;;;3.20;99.90;;;;;;4860909;29;20041;-65
2022/01/21 11:09:53;;;;;;;14.15;1.70;;;3.30;99.90;;;;;;4859972;29;20045;-65
2022/01/21 11:12:19;;;;;;;12.15;1.55;;;3.20;99.90;;;;;;4859897;29;20044;-65
2022/01/21 11:14:44;;;;;;;11.23;2.33;;;3.20;99.90;;;;;;4865332;29;20089;-65
2022/01/21 11:17:16;;;;;;;12.15;1.90;;;3.20;99.90;;;;;;4862363;29;20061;-65
2022/01/21 11:19:41;;;;;;;9.32;1.67;;;3.10;99.90;;;;;;4860926;29;20043;-65
2022/01/21 11:22:07;;;;;;;9.65;1.40;;;3.20;99.90;;;;;;4864015;29;20028;-65
2022/01/21 11:24:32;;;;;;;9.07;1.85;;;3.40;99.90;;;;;;4860422;29;20037;-65
2022/01/21 11:26:58;;;;;;;7.43;1.40;;;3.40;99.90;;;;;;4863189;29;20052;-65
2022/01/21 11:29:23;;;;;;;7.80;1.25;;;3.50;99.90;;;;;;4853495;29;20048;-65
2022/01/21 11:31:50;;;;;;;6.28;1.20;;;3.50;99.90;;;;;;4851384;29;20686;-65
2022/01/21 11:34:15;;;;;;;9.60;2.42;;;3.60;99.90;;;;;;4846925;29;20497;-65
2022/01/21 11:36:41;;;;;;;12.85;1.80;;;3.60;99.90;;;;;;4848588;29;20035;-65
2022/01/21 11:39:06;;;;;;;14.27;4.28;;;3.50;99.90;;;;;;4860951;29;20028;-64
2022/01/21 11:41:32;;;;;;;6.88;1.75;;;3.60;99.90;;;;;;4866659;29;20089;-65
2022/01/21 11:44:00;;;;;;;6.63;1.40;;;3.70;99.90;;;;;;4853749;29;20032;-65
2022/01/21 11:46:39;;;;;;;8.00;2.25;;;3.80;99.90;;;;;;4864654;29;20041;-65
2022/01/21 11:49:09;;;;;;;7.82;1.45;;;4.00;99.90;;;;;;4866983;29;20907;-65
2022/01/21 11:51:34;;;;;;;12.20;3.22;;;4.00;99.90;;;;;;4866647;29;20097;-65
2022/01/21 11:54:00;;;;;;;8.02;1.50;;;4.10;99.90;;;;;;4851642;29;20045;-65
2022/01/21 11:56:25;;;;;;;12.43;2.80;;;4.30;99.90;;;;;;4863579;29;20041;-65
2022/01/21 11:58:51;;;;;;;8.93;2.35;;;4.30;99.90;;;;;;4853341;29;20099;-65
2022/01/21 12:01:21;;;;;;;8.93;3.22;;;4.40;99.90;;;;;;4861602;29;20034;-65
2022/01/21 12:03:47;;;;;;;6.88;1.20;;;4.40;99.90;;;;;;4848319;29;20060;-65
2022/01/21 12:06:12;;;;;;;6.90;1.13;;;4.50;99.90;;;;;;4862826;29;20108;-65
2022/01/21 12:08:38;;;;;;;11.68;1.92;;;4.50;99.90;;;;;;4857557;29;20708;-65
2022/01/21 12:11:03;;;;;;;9.15;1.42;;;4.60;99.90;;;;;;4865942;29;20052;-65
2022/01/21 12:13:29;;;;;;;5.93;1.77;;;4.80;99.90;;;;;;4854029;29;20037;-65
2022/01/21 12:20:51;;;;;;;9.93;1.70;;;5.10;98.00;;;;;;4862407;29;20048;-65
2022/01/21 12:23:17;;;;;;;6.00;1.33;;;5.00;98.80;;;;;;4862864;29;20040;-65
2022/01/21 12:25:42;;;;;;;8.27;1.17;;;5.10;99.50;;;;;;4864051;29;20083;-65
2022/01/21 12:28:08;;;;;;;9.88;1.30;;;5.20;99.00;;;;;;4864785;29;20085;-65
2022/01/21 12:30:33;;;;;;;6.40;1.40;;;5.10;98.10;;;;;;4861299;29;20037;-66
2022/01/21 12:33:18;;;;;;;7.15;2.20;;;5.10;97.70;;;;;;4861823;29;20083;-65
2022/01/21 12:35:56;;;;;;;6.43;1.13;;;4.90;98.80;;;;;;4849672;29;20037;-65
2022/01/21 12:40:53;;;;;;;5.85;1.15;;;5.20;98.50;;;;;;4866269;29;20819;-65
2022/01/21 12:43:19;;;;;;;8.10;1.48;;;5.40;97.80;;;;;;4866246;29;20037;-65
2022/01/21 12:45:44;;;;;;;8.93;2.17;;;5.50;97.60;;;;;;4854047;29;20029;-65
2022/01/21 12:48:09;;;;;;;7.50;1.30;;;5.30;97.90;;;;;;4867649;29;20146;-66
2022/01/21 12:50:59;;;;;;;6.95;1.30;;;5.30;98.20;;;;;;4864928;29;20064;-65
2022/01/21 12:53:34;;;;;;;5.13;1.48;;;5.30;98.40;;;;;;4867991;29;20073;-66
2022/01/21 12:56:02;;;;;;;8.27;1.60;;;5.20;98.30;;;;;;4850549;29;20051;-66
2022/01/21 12:58:28;;;;;;;4.55;1.05;;;5.30;99.00;;;;;;4863274;29;20045;-66
2022/01/21 13:00:53;;;;;;;6.32;1.33;;;5.20;98.40;;;;;;4850847;29;20137;-65
2022/01/21 13:03:19;;;;;;;7.88;1.45;;;5.60;98.10;;;;;;4862108;29;20037;-65
2022/01/21 13:05:44;;;;;;;12.43;1.80;;;5.00;97.40;;;;;;4868144;29;20395;-64
2022/01/21 13:08:10;;;;;;;3.20;0.80;;;4.80;97.30;;;;;;4853271;29;20681;-65
2022/01/21 13:10:37;;;;;;;5.82;1.00;;;4.70;97.40;;;;;;4861638;29;20628;-65
2022/01/21 13:15:31;;;;;;;9.50;2.63;;;4.40;98.30;;;;;;4857500;29;20044;-65
2022/01/21 13:17:57;;;;;;;9.73;1.50;;;4.30;98.60;;;;;;4851169;29;20033;-65
2022/01/21 13:20:22;;;;;;;7.85;1.50;;;4.20;98.20;;;;;;4856027;29;20093;-65
2022/01/21 13:22:47;;;;;;;4.53;1.15;;;4.20;97.70;;;;;;4862562;29;20032;-65
2022/01/21 13:25:17;;;;;;;6.38;1.00;;;4.10;97.50;;;;;;4847232;29;20029;-65
2022/01/21 13:27:42;;;;;;;4.50;1.08;;;4.10;97.80;;;;;;4865330;29;20064;-65
2022/01/21 13:30:08;;;;;;;4.80;1.00;;;4.10;98.00;;;;;;4861813;29;20053;-65
2022/01/21 13:32:33;;;;;;;6.60;1.35;;;4.10;97.80;;;;;;4866263;29;20039;-65
2022/01/21 13:35:01;;;;;;;7.22;1.75;;;4.20;97.50;;;;;;4862238;29;20380;-65
2022/01/21 13:37:26;;;;;;;8.48;1.42;;;4.30;98.00;;;;;;4864483;29;20037;-65
2022/01/21 13:39:51;;;;;;;7.32;1.30;;;4.60;97.20;;;;;;4864103;29;20045;-65